« Back
NWS Peachtree City, Ga » Text Product » AHN Terminal Aerodrome Forecast


Printer-friendly Version
Current Version              Previous Versions:   1  2  3  4  5  6  7  8  9  

Terminal Aerodrome Forecast

486
FTAK31 PAJN 011238 AAA
TAFAHN
TAF AMD
PAHN 011238Z 0113/0212 VRB03KT P6SM VCSH OVC010
      TEMPO 0113/0116 5SM BR OVC008
     FM011900 13006KT P6SM VCSH SCT012 BKN050 OVC070
     FM020600 VRB03KT P6SM VCSH SCT015 OVC060
      AMD LTD TO CLD VIS AND WIND=

USA.gov is the U.S. government's official web portal to all federal, state and local government web resources and services.